Time;durP1;ratioP1;P1;durP2;ratioP2;P2;SDS_P1;SDS_P2;PMS_P1;PMS_P2;Temp;Humidity;BMP_temperature;BMP_pressure;BME280_temperature;BME280_humidity;BME280_pressure;Samples;Min_cycle;Max_cycle;Signal;HPM_P1;HPM_P2
2022/07/19 00:01:51;;;;;;;5.40;4.90;;;;;;;26.14;36.13;95731.84;6163945;28;104155;-56
2022/07/19 00:04:54;;;;;;;6.23;4.07;;;;;;;26.15;36.03;95738.78;6167462;28;104225;-55
2022/07/19 00:07:57;;;;;;;4.53;4.13;;;;;;;26.25;35.98;95738.50;6161492;28;104346;-54
2022/07/19 00:11:02;;;;;;;4.40;4.00;;;;;;;26.33;36.14;95734.22;6167835;28;103036;-55
2022/07/19 00:14:05;;;;;;;3.33;3.13;;;;;;;26.40;35.46;95729.19;6149797;28;104150;-54
2022/07/19 00:17:09;;;;;;;4.73;4.20;;;;;;;26.46;35.55;95735.97;6161213;28;104526;-55
2022/07/19 00:20:14;;;;;;;3.53;3.20;;;;;;;26.49;35.56;95734.53;6159817;28;103254;-55
2022/07/19 00:23:17;;;;;;;3.40;3.20;;;;;;;26.52;35.77;95731.22;6184856;28;103222;-55
2022/07/19 00:26:21;;;;;;;3.57;3.00;;;;;;;26.54;35.41;95731.69;6155420;28;103976;-54
2022/07/19 00:29:24;;;;;;;4.30;3.40;;;;;;;26.54;35.54;95727.09;6159304;28;103739;-56
2022/07/19 00:32:27;;;;;;;3.87;3.20;;;;;;;26.46;35.87;95735.19;6181514;28;103962;-56
2022/07/19 00:35:31;;;;;;;3.50;3.20;;;;;;;26.31;36.45;95741.03;6152612;28;104559;-52
2022/07/19 00:38:34;;;;;;;3.33;3.00;;;;;;;26.20;36.02;95725.22;6159670;28;103819;-55
2022/07/19 00:41:42;;;;;;;3.63;2.93;;;;;;;26.15;36.45;95724.59;6159723;28;104393;-53
2022/07/19 00:44:45;;;;;;;2.73;2.53;;;;;;;26.04;36.54;95728.69;6145915;28;104054;-55
2022/07/19 00:47:49;;;;;;;4.50;2.90;;;;;;;25.98;36.83;95730.72;6159007;28;103439;-55
2022/07/19 00:50:52;;;;;;;3.03;2.83;;;;;;;25.95;37.20;95734.03;6159779;28;104054;-56
2022/07/19 00:53:56;;;;;;;2.87;2.40;;;;;;;25.90;36.93;95729.59;6158037;28;103107;-54
2022/07/19 00:57:01;;;;;;;2.80;2.60;;;;;;;25.95;36.92;95718.72;6176090;28;104138;-54
2022/07/19 01:00:06;;;;;;;2.77;2.57;;;;;;;26.05;37.09;95725.72;6165005;28;104175;-53
2022/07/19 01:03:09;;;;;;;3.77;2.63;;;;;;;26.17;36.69;95719.69;6160351;28;103117;-54
2022/07/19 01:06:12;;;;;;;4.90;2.73;;;;;;;26.22;36.50;95719.56;6161318;28;103330;-54
2022/07/19 01:09:15;;;;;;;3.13;2.53;;;;;;;26.28;36.50;95721.75;6175351;28;104104;-55
2022/07/19 01:12:20;;;;;;;3.93;2.80;;;;;;;26.31;36.05;95719.56;6154865;28;103966;-54
2022/07/19 01:15:25;;;;;;;3.87;2.77;;;;;;;26.35;36.38;95715.13;6172699;28;103489;-54
2022/07/19 01:18:28;;;;;;;3.00;2.80;;;;;;;26.33;36.43;95714.66;6162477;28;103022;-56
2022/07/19 01:21:33;;;;;;;3.40;3.20;;;;;;;26.22;36.69;95712.31;6148483;28;104752;-55
2022/07/19 01:24:37;;;;;;;3.57;3.10;;;;;;;26.09;36.61;95717.81;6157616;28;103195;-54
2022/07/19 01:27:40;;;;;;;5.03;2.73;;;;;;;25.98;37.03;95717.28;6159818;28;103469;-54
2022/07/19 01:30:44;;;;;;;3.77;2.40;;;;;;;25.92;37.18;95715.88;6159538;28;103241;-56
2022/07/19 01:33:48;;;;;;;3.27;3.07;;;;;;;25.87;37.35;95714.13;6157462;28;103997;-54
2022/07/19 01:36:52;;;;;;;4.30;4.00;;;;;;;25.81;37.32;95710.00;6157871;28;103014;-54
2022/07/19 01:39:58;;;;;;;8.13;6.10;;;;;;;25.81;37.76;95706.53;6144799;28;103384;-54
2022/07/19 01:43:01;;;;;;;6.10;5.60;;;;;;;25.79;37.41;95717.59;6151356;28;103996;-54
2022/07/19 01:46:04;;;;;;;6.57;5.97;;;;;;;25.84;37.61;95706.69;6151032;28;103166;-55
2022/07/19 01:49:07;;;;;;;5.90;5.33;;;;;;;25.95;36.99;95716.03;6158802;28;103265;-55
2022/07/19 01:52:12;;;;;;;5.33;4.83;;;;;;;26.04;37.30;95717.94;6168680;28;103344;-55
2022/07/19 01:55:15;;;;;;;3.93;3.63;;;;;;;26.12;36.95;95715.28;6159664;28;103329;-51
2022/07/19 01:58:18;;;;;;;4.20;3.80;;;;;;;26.17;36.87;95714.34;6160309;28;103169;-52
2022/07/19 02:01:21;;;;;;;4.40;4.10;;;;;;;26.20;37.03;95719.84;6159958;28;104342;-51
2022/07/19 02:04:24;;;;;;;4.63;4.33;;;;;;;26.25;36.64;95716.25;6180101;28;103269;-52
2022/07/19 02:07:29;;;;;;;3.80;3.50;;;;;;;26.27;36.90;95717.50;6157112;28;104231;-53
2022/07/19 02:10:32;;;;;;;4.50;3.33;;;;;;;26.14;36.81;95717.66;6163779;28;103654;-53
2022/07/19 02:13:35;;;;;;;4.07;3.17;;;;;;;26.03;37.05;95722.53;6182670;28;103025;-52
2022/07/19 02:16:39;;;;;;;5.00;3.10;;;;;;;25.93;37.38;95723.59;6174634;28;104066;-52
2022/07/19 02:19:43;;;;;;;3.23;3.03;;;;;;;25.91;37.08;95722.34;6181809;28;103056;-52
2022/07/19 02:22:47;;;;;;;3.50;3.30;;;;;;;25.87;37.42;95726.72;6189162;28;104224;-52
2022/07/19 02:25:50;;;;;;;3.17;2.90;;;;;;;25.80;37.47;95718.38;6163560;28;104563;-51
2022/07/19 02:28:53;;;;;;;5.17;3.10;;;;;;;25.77;37.67;95724.38;6157222;28;103009;-52
2022/07/19 02:31:57;;;;;;;4.30;2.63;;;;;;;25.78;37.50;95720.59;6163327;28;103179;-52
2022/07/19 02:35:00;;;;;;;3.70;2.37;;;;;;;25.77;37.35;95724.38;6160964;28;104097;-52
2022/07/19 02:38:04;;;;;;;3.03;2.63;;;;;;;25.91;37.05;95733.06;6185932;28;103327;-53
2022/07/19 02:41:08;;;;;;;2.43;2.27;;;;;;;26.10;37.30;95725.56;6168137;28;104264;-52
2022/07/19 02:44:11;;;;;;;2.27;2.10;;;;;;;26.19;36.85;95726.31;6162326;28;103148;-52
2022/07/19 02:47:14;;;;;;;2.63;2.40;;;;;;;26.23;37.05;95735.34;6163080;28;102952;-52
2022/07/19 02:50:17;;;;;;;2.50;2.30;;;;;;;26.30;36.70;95736.75;6157607;28;102872;-52
2022/07/19 02:53:22;;;;;;;3.77;2.57;;;;;;;26.34;36.33;95737.69;6152390;28;103302;-52
2022/07/19 02:56:25;;;;;;;3.00;2.80;;;;;;;26.31;36.70;95738.34;6176962;28;103359;-53
2022/07/19 02:59:28;;;;;;;4.27;2.63;;;;;;;26.23;36.91;95734.56;6164996;28;102955;-52
2022/07/19 03:02:31;;;;;;;2.33;2.13;;;;;;;25.64;37.75;95734.91;6157868;28;103235;-53
2022/07/19 03:05:34;;;;;;;4.17;2.20;;;;;;;25.40;38.05;95739.88;6164028;28;103318;-53
2022/07/19 03:08:39;;;;;;;2.20;2.00;;;;;;;25.56;38.17;95745.59;6161794;28;103183;-53
2022/07/19 03:11:42;;;;;;;2.30;2.10;;;;;;;25.57;38.08;95745.28;6159640;28;104214;-53
2022/07/19 03:14:45;;;;;;;3.37;2.20;;;;;;;25.60;37.75;95733.94;6151607;28;103160;-53
2022/07/19 03:17:48;;;;;;;2.67;2.47;;;;;;;25.63;37.88;95737.88;6138718;28;104256;-53
2022/07/19 03:20:52;;;;;;;2.43;2.10;;;;;;;25.63;37.66;95738.69;6142850;28;104309;-52
2022/07/19 03:23:56;;;;;;;2.63;2.43;;;;;;;25.62;38.03;95739.78;6161101;28;104260;-53
2022/07/19 03:26:59;;;;;;;1.90;1.80;;;;;;;25.78;37.57;95740.13;6151083;28;103175;-52
2022/07/19 03:30:02;;;;;;;3.27;2.13;;;;;;;25.87;37.40;95748.19;6170542;28;103174;-54
2022/07/19 03:33:05;;;;;;;2.17;1.93;;;;;;;25.95;37.40;95744.75;6172897;28;103199;-53
2022/07/19 03:36:08;;;;;;;6.97;4.80;;;;;;;26.06;37.29;95746.06;6156930;28;103746;-54
2022/07/19 03:39:13;;;;;;;12.33;7.47;;;;;;;26.10;37.25;95747.00;6139486;28;104124;-54
2022/07/19 03:42:16;;;;;;;9.20;7.73;;;;;;;26.31;37.52;95754.44;6164864;28;103341;-55
2022/07/19 03:45:19;;;;;;;9.10;7.23;;;;;;;26.46;37.13;95749.38;6165315;28;103285;-56
2022/07/19 03:48:22;;;;;;;6.30;5.70;;;;;;;26.58;36.73;95751.44;6153502;28;104398;-58
2022/07/19 03:51:26;;;;;;;8.20;7.40;;;;;;;26.60;37.05;95759.97;6161182;28;102968;-56
2022/07/19 03:54:30;;;;;;;10.83;9.90;;;;;;;26.55;37.12;95752.88;6159789;28;103123;-56
2022/07/19 03:57:33;;;;;;;7.50;6.80;;;;;;;26.48;37.19;95759.81;6167138;28;104068;-58
2022/07/19 04:00:36;;;;;;;5.80;5.40;;;;;;;26.30;38.24;95760.91;6150314;28;104244;-56
2022/07/19 04:03:40;;;;;;;5.20;4.70;;;;;;;26.14;38.20;95765.94;6163875;28;103362;-56
2022/07/19 04:06:43;;;;;;;4.90;4.60;;;;;;;26.01;38.68;95764.97;6174922;28;103040;-57
2022/07/19 04:09:48;;;;;;;4.63;4.23;;;;;;;25.92;38.40;95769.50;6181979;28;104084;-56
2022/07/19 04:12:51;;;;;;;7.00;3.70;;;;;;;25.84;38.72;95773.75;6155957;28;103311;-54
2022/07/19 04:15:55;;;;;;;6.07;3.60;;;;;;;25.77;38.59;95768.06;6160896;28;103125;-55
2022/07/19 04:18:58;;;;;;;3.47;3.17;;;;;;;25.84;38.39;95764.91;6160698;28;102872;-56
2022/07/19 04:22:01;;;;;;;4.87;3.03;;;;;;;25.97;37.64;95761.31;6156933;28;104335;-56
2022/07/19 04:25:07;;;;;;;4.77;2.53;;;;;;;25.92;37.98;95762.25;6178235;28;103545;-54
2022/07/19 04:28:10;;;;;;;3.90;2.37;;;;;;;26.05;38.75;95759.78;6153920;28;103126;-55
2022/07/19 04:31:14;;;;;;;9.83;2.60;;;;;;;26.12;38.60;95757.44;6159453;28;103984;-55
2022/07/19 04:34:23;;;;;;;4.67;2.80;;;;;;;26.11;38.27;95753.94;6145284;28;104082;-55
2022/07/19 04:37:27;;;;;;;8.00;2.87;;;;;;;26.11;38.64;95759.31;6173680;28;104162;-56
2022/07/19 04:40:31;;;;;;;6.13;2.70;;;;;;;26.21;38.21;95756.34;6165875;28;104224;-56
2022/07/19 04:43:34;;;;;;;7.90;2.30;;;;;;;26.36;37.70;95755.06;6166610;28;103087;-55
2022/07/19 04:46:37;;;;;;;4.13;2.43;;;;;;;26.11;38.55;95763.91;6150843;28;104354;-55
2022/07/19 04:49:48;;;;;;;5.30;2.90;;;;;;;25.94;38.42;95760.06;6160612;28;102759;-55
2022/07/19 04:52:51;;;;;;;4.73;2.50;;;;;;;25.92;38.66;95761.47;6161162;28;104228;-55
2022/07/19 04:55:56;;;;;;;5.83;2.57;;;;;;;25.88;38.41;95766.69;6156621;28;103070;-55
2022/07/19 04:58:59;;;;;;;7.43;2.27;;;;;;;25.78;38.80;95768.84;6154568;28;103083;-55
2022/07/19 05:02:02;;;;;;;3.53;2.33;;;;;;;25.75;38.71;95774.84;6161052;28;104265;-57
2022/07/19 05:05:06;;;;;;;3.83;2.70;;;;;;;24.98;40.15;95770.66;6159812;28;103720;-55
2022/07/19 05:08:10;;;;;;;2.60;2.40;;;;;;;24.41;41.81;95773.88;6151241;28;103224;-55
2022/07/19 05:11:14;;;;;;;3.97;2.33;;;;;;;24.57;41.41;95771.66;6160237;28;103178;-54
2022/07/19 05:14:18;;;;;;;5.77;2.47;;;;;;;24.83;40.89;95768.38;6159978;28;103060;-54
2022/07/19 05:17:21;;;;;;;4.57;2.60;;;;;;;25.34;40.30;95767.84;6160001;28;103160;-54
2022/07/19 05:20:24;;;;;;;2.13;1.90;;;;;;;25.61;39.93;95761.53;6150727;28;103986;-55
2022/07/19 05:23:28;;;;;;;4.33;2.40;;;;;;;25.81;39.53;95770.91;6160319;28;102991;-54
2022/07/19 05:26:33;;;;;;;7.00;2.30;;;;;;;26.03;39.84;95761.97;6160257;28;104339;-54
2022/07/19 05:29:37;;;;;;;10.13;3.53;;;;;;;26.05;39.57;95762.47;6159393;28;103067;-54
2022/07/19 05:32:40;;;;;;;6.50;2.80;;;;;;;26.23;39.04;95762.19;6150172;28;103424;-55
2022/07/19 05:35:43;;;;;;;5.93;2.47;;;;;;;26.11;39.09;95758.53;6160456;28;104106;-55
2022/07/19 05:38:47;;;;;;;5.70;3.00;;;;;;;26.05;39.33;95765.94;6159970;28;104431;-55
2022/07/19 05:41:51;;;;;;;5.10;2.90;;;;;;;25.94;39.53;95764.63;6153173;28;103093;-56
2022/07/19 05:44:55;;;;;;;3.73;2.30;;;;;;;25.82;39.66;95765.22;6158194;28;103151;-54
2022/07/19 05:47:58;;;;;;;4.60;2.43;;;;;;;25.85;39.74;95766.47;6159113;28;103247;-54
2022/07/19 05:51:01;;;;;;;5.87;2.57;;;;;;;25.59;40.25;95769.91;6160307;28;103200;-54
2022/07/19 05:54:06;;;;;;;2.70;2.50;;;;;;;25.09;41.29;95762.09;6149489;28;104088;-53
2022/07/19 05:57:10;;;;;;;4.13;2.63;;;;;;;25.15;41.50;95767.28;6159529;28;103179;-54
2022/07/19 06:00:14;;;;;;;4.10;2.87;;;;;;;24.97;41.60;95759.16;6158939;28;103123;-56
2022/07/19 06:03:17;;;;;;;4.40;2.90;;;;;;;25.21;41.53;95758.84;6159363;28;103059;-54
2022/07/19 06:06:21;;;;;;;5.00;2.67;;;;;;;25.11;41.24;95753.75;6149928;28;103467;-55
2022/07/19 06:09:25;;;;;;;3.97;2.87;;;;;;;25.22;40.72;95756.94;6159284;28;104332;-54
2022/07/19 06:12:29;;;;;;;2.50;2.30;;;;;;;25.46;41.01;95754.72;6159260;28;103223;-54
2022/07/19 06:15:32;;;;;;;3.37;2.60;;;;;;;25.55;40.84;95760.13;6154816;28;103452;-55
2022/07/19 06:18:37;;;;;;;3.50;2.73;;;;;;;25.91;40.42;95746.47;6154742;28;104038;-56
2022/07/19 06:21:40;;;;;;;3.90;2.63;;;;;;;26.08;40.13;95751.91;6159343;28;102928;-55
2022/07/19 06:24:43;;;;;;;3.00;2.60;;;;;;;26.30;39.88;95744.81;6159008;28;103128;-55
2022/07/19 06:27:47;;;;;;;3.57;2.60;;;;;;;26.28;39.27;95750.50;6148788;28;103586;-55
2022/07/19 06:30:50;;;;;;;2.93;2.40;;;;;;;26.37;39.69;95747.78;6158457;28;103223;-54
2022/07/19 06:33:54;;;;;;;2.50;2.30;;;;;;;26.70;38.60;95746.22;6159339;28;103351;-54
2022/07/19 06:36:57;;;;;;;2.50;2.30;;;;;;;26.94;38.38;95744.94;6158926;28;103050;-56
2022/07/19 06:40:00;;;;;;;3.40;2.43;;;;;;;27.00;38.24;95751.72;6149162;28;103299;-55
2022/07/19 06:43:05;;;;;;;4.23;2.83;;;;;;;26.85;38.15;95759.16;6159486;28;103997;-54
2022/07/19 06:46:08;;;;;;;3.20;2.90;;;;;;;26.62;38.24;95746.22;6158798;28;103998;-54
2022/07/19 06:49:11;;;;;;;3.30;2.83;;;;;;;26.62;39.22;95741.63;6158469;28;102966;-55
2022/07/19 06:52:14;;;;;;;2.73;2.60;;;;;;;26.75;38.59;95745.28;6152694;28;103196;-55
2022/07/19 06:55:17;;;;;;;4.13;2.70;;;;;;;26.95;38.16;95741.94;6162943;28;103245;-56
2022/07/19 06:58:22;;;;;;;3.10;2.80;;;;;;;27.06;37.94;95743.16;6163303;28;102953;-54
2022/07/19 07:01:25;;;;;;;3.20;2.80;;;;;;;27.05;38.29;95741.59;6153001;28;104143;-56
2022/07/19 07:04:28;;;;;;;3.40;3.13;;;;;;;27.04;38.42;95744.56;6162459;28;103238;-54
2022/07/19 07:07:47;;;;;;;5.70;5.10;;;;;;;27.01;38.06;95747.91;6162636;28;103155;-54
2022/07/19 07:10:50;;;;;;;4.57;4.17;;;;;;;26.96;38.66;95734.66;6162725;28;102979;-55
2022/07/19 07:13:55;;;;;;;7.73;3.57;;;;;;;26.70;37.69;95743.53;6152819;28;103426;-55
2022/07/19 07:16:58;;;;;;;3.70;3.23;;;;;;;26.47;38.60;95736.75;6162590;28;104687;-56
2022/07/19 07:20:02;;;;;;;3.33;3.00;;;;;;;26.43;38.45;95739.28;6163004;28;104982;-57
2022/07/19 07:23:05;;;;;;;5.50;3.20;;;;;;;26.50;38.65;95733.44;6162591;28;104001;-55
2022/07/19 07:26:08;;;;;;;3.07;2.77;;;;;;;26.55;38.02;95731.38;6152702;28;103218;-55
2022/07/19 07:29:13;;;;;;;3.40;3.00;;;;;;;26.86;37.86;95730.41;6162467;28;103047;-56
2022/07/19 07:32:16;;;;;;;5.90;3.30;;;;;;;27.07;37.86;95733.22;6161421;28;103069;-55
2022/07/19 07:35:19;;;;;;;4.40;3.50;;;;;;;27.18;37.11;95726.34;6159104;28;104264;-54
2022/07/19 07:38:23;;;;;;;5.67;3.27;;;;;;;27.41;37.05;95729.63;6158177;28;103091;-54
2022/07/19 07:41:26;;;;;;;8.90;3.50;;;;;;;27.72;36.60;95740.06;6162557;28;103162;-53
2022/07/19 07:44:44;;;;;;;6.80;2.77;;;;;;;27.89;36.85;95734.63;6162858;28;104023;-55
2022/07/19 07:47:47;;;;;;;14.23;4.03;;;;;;;27.89;37.29;95733.81;6155061;28;103670;-54
2022/07/19 07:50:50;;;;;;;6.73;3.27;;;;;;;27.96;36.77;95734.09;6162805;28;103189;-53
2022/07/19 07:53:53;;;;;;;7.43;3.97;;;;;;;27.89;36.93;95734.63;6162367;28;102778;-53
2022/07/19 07:56:56;;;;;;;7.00;3.50;;;;;;;27.71;37.76;95719.66;6162766;28;104831;-53
2022/07/19 08:00:01;;;;;;;12.60;4.10;;;;;;;27.74;37.67;95724.41;6153491;28;104163;-52
2022/07/19 08:03:04;;;;;;;7.80;3.20;;;;;;;27.72;37.10;95713.16;6161114;28;103250;-52
2022/07/19 08:06:08;;;;;;;12.70;3.20;;;;;;;27.68;37.42;95713.03;6162255;28;103027;-52
2022/07/19 08:09:11;;;;;;;10.50;4.43;;;;;;;27.63;37.37;95715.91;6158125;28;103514;-52
2022/07/19 08:12:14;;;;;;;16.23;3.90;;;;;;;27.54;36.24;95717.84;6157897;28;104309;-52
2022/07/19 08:15:19;;;;;;;16.50;3.80;;;;;;;27.71;35.42;95714.28;6161753;28;102876;-52
2022/07/19 08:18:23;;;;;;;8.40;3.67;;;;;;;27.90;35.42;95713.91;6161655;28;103197;-52
2022/07/19 08:21:26;;;;;;;6.93;3.03;;;;;;;28.01;34.55;95721.25;6153962;28;103309;-52
2022/07/19 08:24:29;;;;;;;10.50;3.20;;;;;;;28.08;34.41;95707.28;6162143;28;103277;-52
2022/07/19 08:27:33;;;;;;;11.50;4.43;;;;;;;28.14;34.30;95710.56;6161768;28;103069;-52
2022/07/19 08:30:37;;;;;;;15.10;5.03;;;;;;;28.22;34.14;95715.06;6161308;28;104282;-52
2022/07/19 08:34:00;;;;;;;17.40;5.40;;;;;;;28.30;34.64;95708.84;6152337;28;103362;-53
2022/07/19 08:37:03;;;;;;;16.57;5.67;;;;;;;28.33;33.80;95708.19;6161090;28;102725;-51
2022/07/19 08:40:08;;;;;;;13.07;5.13;;;;;;;28.29;34.14;95718.03;6161627;28;104175;-52
2022/07/19 08:43:12;;;;;;;11.70;4.73;;;;;;;28.20;33.36;95706.53;6156773;28;103534;-52
2022/07/19 08:46:20;;;;;;;10.07;4.37;;;;;;;28.07;33.35;95703.00;6156657;28;103280;-51
2022/07/19 08:49:23;;;;;;;9.70;3.70;;;;;;;28.01;33.31;95710.47;6160656;28;103027;-53
2022/07/19 08:52:27;;;;;;;13.80;4.03;;;;;;;27.95;33.62;95702.94;6160930;28;104110;-51
2022/07/19 08:55:30;;;;;;;56.10;9.70;;;;;;;27.83;34.49;95700.91;6153286;28;104042;-56
2022/07/19 08:58:33;;;;;;;42.07;9.20;;;;;;;27.75;34.41;95697.19;6160817;28;103182;-52
2022/07/19 09:01:37;;;;;;;93.73;13.90;;;;;;;27.62;34.30;95702.78;6160821;28;103122;-52
2022/07/19 09:04:41;;;;;;;155.73;23.27;;;;;;;27.76;34.93;95697.97;6160773;28;104285;-52
2022/07/19 09:08:01;;;;;;;171.83;30.33;;;;;;;27.97;34.49;95696.09;6151434;28;103578;-52
2022/07/19 09:11:16;;;;;;;204.87;30.43;;;;;;;28.16;34.72;95701.03;6161160;28;103282;-51
2022/07/19 09:14:21;;;;;;;205.33;31.77;;;;;;;28.30;34.83;95698.84;6159435;28;103235;-53
2022/07/19 09:17:30;;;;;;;193.70;33.77;;;;;;;28.37;34.36;95698.31;6155173;28;103321;-53
2022/07/19 09:20:34;;;;;;;264.93;41.70;;;;;;;28.30;35.11;95690.00;6160576;28;103200;-52
2022/07/19 09:23:42;;;;;;;286.10;39.93;;;;;;;28.45;34.82;95694.78;6160738;28;102950;-52
2022/07/19 09:26:56;;;;;;;267.67;44.00;;;;;;;28.50;34.53;95694.59;6160668;28;102993;-52
2022/07/19 09:30:00;;;;;;;271.50;42.13;;;;;;;28.54;34.63;95692.81;6151554;28;104248;-53
2022/07/19 09:33:08;;;;;;;226.33;37.23;;;;;;;28.56;35.12;95687.91;6160525;28;104008;-52
2022/07/19 09:36:13;;;;;;;146.03;25.63;;;;;;;28.40;34.66;95683.44;6160052;28;103594;-52
2022/07/19 09:39:28;;;;;;;112.63;23.30;;;;;;;28.02;34.31;95678.97;6160810;28;103971;-53
2022/07/19 09:42:36;;;;;;;93.20;19.17;;;;;;;28.00;34.50;95681.22;6155572;28;103290;-53
2022/07/19 09:45:39;;;;;;;90.10;16.93;;;;;;;28.09;34.27;95681.94;6178528;28;104122;-52
2022/07/19 09:48:44;;;;;;;77.47;16.63;;;;;;;28.04;34.20;95672.13;6160992;28;103132;-52
2022/07/19 09:51:50;;;;;;;58.93;13.00;;;;;;;28.01;34.10;95675.50;6151260;28;103991;-52
2022/07/19 09:54:53;;;;;;;124.23;23.50;;;;;;;27.74;34.86;95673.31;6160442;28;103158;-52
2022/07/19 09:57:58;;;;;;;77.30;18.13;;;;;;;27.92;35.04;95680.16;6160333;28;103190;-53
2022/07/19 10:01:02;;;;;;;63.60;16.87;;;;;;;27.96;34.75;95672.22;6160197;28;104200;-53
2022/07/19 10:04:09;;;;;;;69.20;15.23;;;;;;;28.10;34.01;95669.28;6150760;28;103058;-54
2022/07/19 10:07:14;;;;;;;61.50;14.67;;;;;;;28.21;34.38;95673.13;6159288;28;104295;-52
2022/07/19 10:10:19;;;;;;;44.63;12.00;;;;;;;28.28;34.22;95670.69;6159732;28;103109;-54
2022/07/19 10:13:22;;;;;;;42.70;11.37;;;;;;;28.37;33.12;95668.69;6159391;28;103396;-52
2022/07/19 10:16:34;;;;;;;40.37;9.93;;;;;;;28.41;33.24;95660.78;6151017;28;103368;-53
2022/07/19 10:19:42;;;;;;;23.03;7.60;;;;;;;28.38;33.25;95662.19;6159714;28;103331;-53
2022/07/19 10:22:46;;;;;;;23.57;7.30;;;;;;;28.41;32.85;95666.94;6159545;28;103457;-53
2022/07/19 10:25:50;;;;;;;75.53;13.40;;;;;;;28.41;32.24;95658.88;6154486;28;103554;-53
2022/07/19 10:29:08;;;;;;;255.47;35.80;;;;;;;28.45;32.72;95656.28;6163757;28;103180;-52
2022/07/19 10:32:15;;;;;;;389.70;47.70;;;;;;;28.37;32.60;95655.25;6164259;28;103120;-54
2022/07/19 10:35:22;;;;;;;151.60;29.13;;;;;;;28.26;32.98;95649.50;6164351;28;104559;-56
2022/07/19 10:38:25;;;;;;;184.17;28.53;;;;;;;28.14;32.66;95654.03;6153714;28;104706;-52
2022/07/19 10:41:28;;;;;;;160.87;29.00;;;;;;;28.09;33.41;95652.34;6164015;28;104531;-52
2022/07/19 10:44:32;;;;;;;212.10;33.57;;;;;;;27.99;33.29;95642.75;6163378;28;103205;-53
2022/07/19 10:47:58;;;;;;;247.73;33.00;;;;;;;27.93;32.98;95646.75;6161985;28;102995;-52
2022/07/19 10:51:03;;;;;;;180.17;29.90;;;;;;;27.88;32.80;95636.19;6158632;28;104263;-54
2022/07/19 10:54:07;;;;;;;194.27;29.00;;;;;;;27.84;33.58;95634.44;6164035;28;103182;-53
2022/07/19 10:57:10;;;;;;;220.83;33.23;;;;;;;27.88;33.06;95635.41;6163677;28;103168;-54
2022/07/19 11:00:20;;;;;;;208.00;32.00;;;;;;;27.98;33.46;95635.78;6154296;28;104116;-53
2022/07/19 11:03:30;;;;;;;197.83;32.67;;;;;;;28.09;33.07;95640.78;6163515;28;103304;-54
2022/07/19 11:06:35;;;;;;;230.60;33.03;;;;;;;28.16;32.84;95631.06;6163000;28;103265;-52
2022/07/19 11:09:51;;;;;;;190.03;32.00;;;;;;;28.22;32.94;95635.09;6162748;28;103565;-53
2022/07/19 11:12:55;;;;;;;15.07;5.90;;;;;;;27.95;31.07;95630.28;6152004;28;103125;-56
2022/07/19 11:15:59;;;;;;;12.83;6.43;;;;;;;27.71;32.35;95623.63;6162756;28;102978;-54
2022/07/19 11:19:05;;;;;;;10.83;4.37;;;;;;;27.71;31.70;95617.47;6162824;28;103019;-54
2022/07/19 11:22:12;;;;;;;27.90;9.77;;;;;;;27.86;32.75;95619.59;6158192;28;103269;-52
2022/07/19 11:25:17;;;;;;;29.50;9.40;;;;;;;27.98;32.72;95616.19;6158520;28;104009;-54
2022/07/19 11:28:24;;;;;;;26.03;8.97;;;;;;;27.90;33.36;95617.84;6162555;28;103380;-53
2022/07/19 11:31:27;;;;;;;41.13;11.93;;;;;;;27.67;33.04;95613.84;6162256;28;103081;-53
2022/07/19 11:34:30;;;;;;;16.37;5.60;;;;;;;27.51;32.63;95612.84;6153265;28;102976;-52
2022/07/19 11:37:38;;;;;;;22.23;9.50;;;;;;;27.53;33.48;95607.94;6161896;28;103984;-52
2022/07/19 11:40:41;;;;;;;30.07;13.13;;;;;;;27.48;33.24;95610.84;6161956;28;103116;-54
2022/07/19 11:43:44;;;;;;;32.10;14.23;;;;;;;27.26;34.07;95609.22;6161846;28;104192;-54
2022/07/19 11:46:47;;;;;;;18.03;9.37;;;;;;;27.00;33.15;95601.25;6151399;28;102977;-53
2022/07/19 11:49:51;;;;;;;14.33;5.70;;;;;;;27.01;32.66;95595.56;6161388;28;103813;-53
2022/07/19 11:52:57;;;;;;;6.60;3.30;;;;;;;27.19;31.32;95596.25;6161834;28;104138;-53
2022/07/19 11:56:00;;;;;;;6.27;3.10;;;;;;;27.28;30.57;95597.03;6157169;28;103537;-54
2022/07/19 11:59:07;;;;;;;5.67;3.30;;;;;;;27.37;31.52;95597.75;6131453;28;103027;-53
2022/07/19 12:02:11;;;;;;;3.70;3.00;;;;;;;27.51;32.36;95596.72;6138281;28;103196;-52
2022/07/19 12:05:15;;;;;;;3.70;3.30;;;;;;;27.72;31.77;95594.81;6139495;28;103159;-52
2022/07/19 12:08:19;;;;;;;4.47;4.07;;;;;;;27.94;30.94;95589.16;6153353;28;103173;-53
2022/07/19 12:11:25;;;;;;;10.20;4.60;;;;;;;27.95;32.03;95590.72;6161273;28;103333;-52
2022/07/19 12:14:30;;;;;;;7.33;4.13;;;;;;;28.08;31.48;95596.94;6161540;28;103964;-52
2022/07/19 12:17:33;;;;;;;5.73;4.77;;;;;;;28.10;31.27;95591.22;6161950;28;103163;-52
2022/07/19 12:20:36;;;;;;;7.93;4.90;;;;;;;28.00;32.21;95587.03;6152371;28;103950;-52
2022/07/19 12:24:15;;;;;;;6.77;4.80;;;;;;;27.88;32.56;95582.38;6162133;28;104067;-52
2022/07/19 12:27:20;;;;;;;9.40;5.70;;;;;;;27.82;33.07;95581.00;6161484;28;103076;-51
2022/07/19 12:30:23;;;;;;;10.10;5.60;;;;;;;27.80;32.78;95574.38;6153873;28;103233;-52
2022/07/19 12:33:26;;;;;;;6.00;5.40;;;;;;;27.75;33.26;95581.53;6161301;28;103253;-52
2022/07/19 12:36:36;;;;;;;5.50;4.77;;;;;;;27.71;32.63;95575.22;6161469;28;104277;-52
2022/07/19 12:39:56;;;;;;;5.83;3.87;;;;;;;27.50;32.41;95571.75;6161073;28;103134;-60
2022/07/19 12:43:02;;;;;;;30.23;7.50;;;;;;;27.38;32.67;95564.38;6151202;28;104315;-50
2022/07/19 12:46:05;;;;;;;13.27;4.50;;;;;;;27.39;31.77;95570.56;6160649;28;103419;-53
2022/07/19 12:49:11;;;;;;;9.43;4.37;;;;;;;27.62;32.63;95566.44;6160643;28;103772;-52
2022/07/19 12:52:14;;;;;;;8.03;4.17;;;;;;;27.90;31.86;95563.25;6161071;28;102962;-51
2022/07/19 12:55:19;;;;;;;11.03;4.10;;;;;;;28.05;31.59;95554.53;6153021;28;103327;-53
2022/07/19 13:01:39;;;;;;;11.37;6.03;;;;;;;28.15;31.97;95554.13;6161307;28;103519;-53
2022/07/19 13:04:44;;;;;;;8.40;4.93;;;;;;;28.08;32.17;95543.13;6151046;28;103084;-53
2022/07/19 13:07:48;;;;;;;11.03;6.33;;;;;;;28.25;32.06;95545.63;6160911;28;104244;-52
2022/07/19 13:10:54;;;;;;;12.07;8.00;;;;;;;28.25;32.53;95548.31;6160325;28;104206;-52
2022/07/19 13:13:58;;;;;;;10.50;7.37;;;;;;;28.08;32.50;95548.50;6159303;28;103280;-52
2022/07/19 13:17:02;;;;;;;10.23;6.37;;;;;;;27.96;32.53;95546.56;6151908;28;103118;-52
2022/07/19 13:20:08;;;;;;;9.97;7.10;;;;;;;27.92;32.67;95540.28;6161084;28;103507;-52
2022/07/19 13:23:12;;;;;;;16.07;7.37;;;;;;;27.90;33.52;95536.34;6160265;28;103111;-52
2022/07/19 13:26:16;;;;;;;16.00;7.67;;;;;;;27.81;33.50;95538.28;6159973;28;103152;-53
2022/07/19 13:29:19;;;;;;;12.60;7.90;;;;;;;27.70;33.91;95537.88;6151672;28;104303;-53
2022/07/19 13:32:22;;;;;;;12.73;7.43;;;;;;;27.66;33.84;95529.69;6160093;28;103958;-53
2022/07/19 13:35:26;;;;;;;13.43;8.00;;;;;;;27.65;33.89;95530.81;6160189;28;103205;-52
2022/07/19 13:38:29;;;;;;;7.43;6.00;;;;;;;27.73;33.58;95529.19;6153244;28;103308;-53
2022/07/19 13:41:36;;;;;;;9.43;5.83;;;;;;;27.85;32.73;95523.84;6159281;28;103185;-53
2022/07/19 13:44:39;;;;;;;10.83;7.43;;;;;;;27.92;32.82;95521.44;6159265;28;103042;-53
2022/07/19 13:47:42;;;;;;;7.67;6.03;;;;;;;28.00;32.48;95520.56;6160531;28;103185;-52
2022/07/19 13:50:45;;;;;;;9.93;6.20;;;;;;;28.09;32.78;95514.31;6151756;28;103186;-52
2022/07/19 13:53:49;;;;;;;12.43;7.23;;;;;;;28.15;32.17;95507.59;6159859;28;103707;-52
2022/07/19 13:56:54;;;;;;;14.83;9.00;;;;;;;28.19;31.94;95511.97;6160158;28;103759;-52
2022/07/19 13:59:57;;;;;;;11.50;6.93;;;;;;;28.22;32.38;95522.06;6162036;28;103517;-52
2022/07/19 14:03:00;;;;;;;22.47;13.80;;;;;;;28.12;32.77;95510.94;6154642;28;103334;-52
2022/07/19 14:06:04;;;;;;;30.83;19.97;;;;;;;27.99;32.78;95508.22;6164503;28;103278;-55
2022/07/19 14:09:07;;;;;;;7.40;5.20;;;;;;;27.74;31.05;95512.72;6164302;28;103973;-52
2022/07/19 14:12:12;;;;;;;13.27;7.80;;;;;;;27.70;33.12;95511.78;6159009;28;103092;-51
2022/07/19 14:15:16;;;;;;;9.40;7.13;;;;;;;27.77;32.42;95501.28;6159327;28;103985;-52